Time;durP1;ratioP1;P1;durP2;ratioP2;P2;SDS_P1;SDS_P2;PMS_P1;PMS_P2;Temp;Humidity;BMP_temperature;BMP_pressure;BME280_temperature;BME280_humidity;BME280_pressure;Samples;Min_cycle;Max_cycle;Signal;HPM_P1;HPM_P2
2023/02/21 02:15:58;;;;;;;11.73;4.97;;;16.60;77.30;;;;;;4161254;28;20127;-65
2023/02/21 02:18:56;;;;;;;11.00;5.78;;;16.60;77.00;;;;;;4127530;28;20192;-65
2023/02/21 02:22:09;;;;;;;11.88;5.50;;;16.70;76.70;;;;;;4132645;28;20057;-65
2023/02/21 02:25:15;;;;;;;16.25;6.15;;;16.70;76.50;;;;;;4126062;28;20055;-65
2023/02/21 02:28:25;;;;;;;9.13;5.07;;;16.60;76.60;;;;;;4127046;28;20401;-64
2023/02/21 02:31:38;;;;;;;12.35;5.97;;;16.60;76.80;;;;;;4128198;28;20429;-64
2023/02/21 02:34:39;;;;;;;11.23;4.88;;;16.60;77.00;;;;;;4125950;28;20101;-65
2023/02/21 02:37:25;;;;;;;13.75;5.30;;;16.50;77.30;;;;;;4125788;28;20065;-65
2023/02/21 02:40:17;;;;;;;11.10;6.22;;;16.40;77.50;;;;;;4126985;28;20057;-64
2023/02/21 02:43:20;;;;;;;9.55;5.25;;;16.40;77.90;;;;;;4126588;28;20053;-65
2023/02/21 02:46:05;;;;;;;12.90;6.00;;;16.50;77.80;;;;;;4125056;28;20197;-65
2023/02/21 02:48:51;;;;;;;13.07;5.65;;;16.60;77.20;;;;;;4126035;28;20077;-65
2023/02/21 02:51:35;;;;;;;12.02;5.60;;;16.70;76.90;;;;;;4132274;28;20508;-64
2023/02/21 02:54:18;;;;;;;12.60;6.25;;;16.70;76.70;;;;;;4141778;28;20057;-65
2023/02/21 02:57:01;;;;;;;8.40;6.15;;;16.70;76.60;;;;;;4141574;28;20111;-65
2023/02/21 02:59:46;;;;;;;11.18;6.13;;;16.70;76.60;;;;;;4142683;28;20127;-64
2023/02/21 03:02:51;;;;;;;9.05;5.97;;;16.70;76.70;;;;;;4139968;28;20049;-65
2023/02/21 03:05:43;;;;;;;12.75;6.70;;;16.70;76.70;;;;;;4126829;28;20061;-65
2023/02/21 03:08:33;;;;;;;13.65;6.88;;;16.70;76.70;;;;;;4125073;28;20053;-63
2023/02/21 03:11:17;;;;;;;12.32;6.45;;;16.70;76.70;;;;;;4126963;28;20160;-64
2023/02/21 03:14:07;;;;;;;13.02;6.47;;;16.70;76.70;;;;;;4126964;28;20184;-64
2023/02/21 03:16:51;;;;;;;10.27;6.10;;;16.60;76.80;;;;;;4130811;28;20496;-64
2023/02/21 03:19:37;;;;;;;10.40;6.53;;;16.60;76.90;;;;;;4142953;28;20099;-64
2023/02/21 03:22:22;;;;;;;12.02;7.60;;;16.60;78.00;;;;;;4152381;28;20052;-64
2023/02/21 03:25:05;;;;;;;11.95;7.25;;;16.50;77.30;;;;;;4159136;28;20546;-63
2023/02/21 03:27:47;;;;;;;11.75;7.22;;;16.40;77.50;;;;;;4157706;28;20079;-63
2023/02/21 03:30:36;;;;;;;16.02;7.47;;;16.40;78.00;;;;;;4147950;28;20135;-64
2023/02/21 03:33:16;;;;;;;;;;;16.50;77.90;;;;;;4142506;28;20057;-63
2023/02/21 03:35:59;;;;;;;11.38;6.97;;;16.50;77.80;;;;;;4141775;28;19929;-63
2023/02/21 03:38:40;;;;;;;12.20;7.15;;;16.50;77.50;;;;;;4141586;28;20089;-64
2023/02/21 03:41:23;;;;;;;11.95;6.70;;;16.60;77.40;;;;;;4141798;28;20057;-64
2023/02/21 03:44:05;;;;;;;8.57;6.13;;;16.60;77.10;;;;;;4141549;28;20057;-64
2023/02/21 03:46:46;;;;;;;14.73;8.05;;;16.70;77.00;;;;;;4142766;28;20060;-64
2023/02/21 03:49:27;;;;;;;11.60;7.07;;;16.70;76.90;;;;;;4144881;28;20061;-65
2023/02/21 03:52:11;;;;;;;14.30;7.10;;;16.70;76.90;;;;;;4157858;28;20056;-64
2023/02/21 03:54:52;;;;;;;15.10;6.82;;;16.70;76.70;;;;;;4157885;28;20048;-65
2023/02/21 03:57:36;;;;;;;14.15;7.75;;;16.70;76.50;;;;;;4147247;28;20483;-63
2023/02/21 04:00:18;;;;;;;14.00;7.75;;;16.70;76.50;;;;;;4151058;28;20091;-65
2023/02/21 04:03:03;;;;;;;12.00;7.10;;;16.70;76.50;;;;;;4144303;28;20052;-65
2023/02/21 04:05:58;;;;;;;10.52;6.50;;;16.70;76.80;;;;;;4143949;28;20504;-66
2023/02/21 04:08:41;;;;;;;13.88;7.10;;;16.60;76.80;;;;;;4144156;28;20052;-65
2023/02/21 04:11:22;;;;;;;14.35;7.05;;;16.60;77.10;;;;;;4132858;28;20076;-65
2023/02/21 04:14:07;;;;;;;11.63;7.28;;;16.50;77.30;;;;;;4155733;28;20396;-65
2023/02/21 04:16:48;;;;;;;13.75;6.95;;;16.50;77.60;;;;;;4151325;28;20148;-66
2023/02/21 04:19:29;;;;;;;10.65;6.45;;;16.60;77.50;;;;;;4160705;28;20122;-65
2023/02/21 04:22:10;;;;;;;12.95;6.65;;;16.70;77.30;;;;;;4160634;28;20126;-65
2023/02/21 04:24:52;;;;;;;14.73;6.45;;;16.70;77.00;;;;;;4160422;28;20048;-65
2023/02/21 04:27:35;;;;;;;11.32;6.78;;;16.70;76.70;;;;;;4157343;28;20168;-65
2023/02/21 04:30:17;;;;;;;14.40;7.40;;;16.70;76.60;;;;;;4144260;28;20049;-65
2023/02/21 04:32:58;;;;;;;15.77;6.97;;;16.80;76.70;;;;;;4145447;28;20180;-66
2023/02/21 04:35:40;;;;;;;9.38;5.95;;;16.80;76.50;;;;;;4144339;28;20091;-65
2023/02/21 04:38:28;;;;;;;11.82;6.35;;;16.80;76.40;;;;;;4144144;28;20520;-66
2023/02/21 04:41:09;;;;;;;10.63;5.72;;;16.80;76.30;;;;;;4144838;28;20057;-67
2023/02/21 04:43:52;;;;;;;14.07;6.50;;;16.70;76.50;;;;;;4144041;28;20053;-67
2023/02/21 04:46:34;;;;;;;15.38;7.07;;;16.70;76.60;;;;;;4145668;28;20188;-66
2023/02/21 04:49:15;;;;;;;9.90;6.80;;;16.70;76.80;;;;;;4145253;28;20048;-65
2023/02/21 04:51:56;;;;;;;15.00;6.70;;;16.60;77.00;;;;;;4144967;28;20053;-66
2023/02/21 04:54:37;;;;;;;10.75;6.25;;;16.50;77.20;;;;;;4146824;28;20611;-65
2023/02/21 04:57:18;;;;;;;12.27;6.70;;;16.50;77.60;;;;;;4161543;28;20059;-65
2023/02/21 05:00:00;;;;;;;11.75;6.82;;;16.50;77.90;;;;;;4161269;28;20063;-66
2023/02/21 05:02:44;;;;;;;12.07;6.60;;;16.60;77.80;;;;;;4158131;28;20090;-65
2023/02/21 05:05:25;;;;;;;11.63;6.97;;;16.60;77.40;;;;;;4144690;28;20057;-67
2023/02/21 05:08:06;;;;;;;9.98;6.97;;;16.70;78.10;;;;;;4144136;28;20072;-65
2023/02/21 05:10:47;;;;;;;13.93;6.88;;;16.70;76.90;;;;;;4144441;28;20052;-65
2023/02/21 05:13:28;;;;;;;11.25;7.30;;;16.70;76.90;;;;;;4152101;28;20199;-65
2023/02/21 05:16:09;;;;;;;12.67;7.63;;;16.70;76.90;;;;;;4159916;28;20611;-65
2023/02/21 05:18:51;;;;;;;16.70;8.90;;;16.70;77.90;;;;;;4176912;28;20056;-66
2023/02/21 05:21:34;;;;;;;12.50;8.02;;;16.70;77.10;;;;;;4176767;28;20052;-65
2023/02/21 05:24:16;;;;;;;15.35;8.07;;;16.70;76.90;;;;;;4160321;28;20053;-65
2023/02/21 05:26:58;;;;;;;13.15;7.97;;;16.70;77.00;;;;;;4160544;28;20131;-66
2023/02/21 05:29:38;;;;;;;11.95;7.93;;;16.70;76.90;;;;;;4160391;28;20065;-66
2023/02/21 05:32:21;;;;;;;12.40;9.05;;;16.70;77.10;;;;;;4162023;28;20048;-65
2023/02/21 05:35:04;;;;;;;17.73;9.88;;;16.60;77.20;;;;;;4176927;28;20403;-65
2023/02/21 05:37:46;;;;;;;13.35;8.75;;;16.60;77.40;;;;;;4164535;28;20102;-65
2023/02/21 05:40:26;;;;;;;13.98;9.30;;;16.50;77.50;;;;;;4176763;28;20056;-65
2023/02/21 05:43:07;;;;;;;16.20;9.75;;;16.50;77.90;;;;;;4168039;28;20400;-66
2023/02/21 05:45:48;;;;;;;13.98;9.35;;;16.60;77.80;;;;;;4160053;28;20056;-65
2023/02/21 05:48:30;;;;;;;;;;;16.60;77.50;;;;;;4160301;28;20056;-66
2023/02/21 05:51:12;;;;;;;13.60;8.95;;;16.70;77.60;;;;;;4160307;28;19928;-66
2023/02/21 05:53:53;;;;;;;18.40;10.30;;;16.70;77.40;;;;;;4174263;28;20087;-65
2023/02/21 05:56:39;;;;;;;15.93;8.77;;;16.70;77.30;;;;;;4160070;28;20055;-65
2023/02/21 05:59:21;;;;;;;14.45;9.02;;;16.70;77.20;;;;;;4159985;28;20044;-65
2023/02/21 06:02:03;;;;;;;11.77;8.98;;;16.70;77.30;;;;;;4159932;28;20056;-65
2023/02/21 06:04:43;;;;;;;14.07;9.27;;;16.60;77.40;;;;;;4159612;28;20064;-66
2023/02/21 06:07:26;;;;;;;15.90;8.50;;;16.60;77.50;;;;;;4159788;28;20061;-66
2023/02/21 06:10:07;;;;;;;13.00;8.90;;;16.70;77.40;;;;;;4159670;28;20771;-66
2023/02/21 06:12:47;;;;;;;12.07;9.05;;;16.70;77.20;;;;;;4165951;28;20063;-65
2023/02/21 06:15:28;;;;;;;18.13;9.83;;;16.70;77.30;;;;;;4175585;28;20067;-66
2023/02/21 06:18:12;;;;;;;15.27;9.15;;;16.70;77.40;;;;;;4176267;28;20282;-66
2023/02/21 06:20:53;;;;;;;15.63;9.13;;;16.60;77.40;;;;;;4170405;28;20171;-65
2023/02/21 06:23:35;;;;;;;16.02;9.10;;;16.70;77.50;;;;;;4159168;28;20056;-65
2023/02/21 06:26:19;;;;;;;14.55;8.70;;;16.70;77.20;;;;;;4159396;28;20424;-66
2023/02/21 06:29:00;;;;;;;14.32;8.70;;;16.80;77.00;;;;;;4159126;28;20056;-65
2023/02/21 06:31:41;;;;;;;15.10;9.68;;;16.80;76.90;;;;;;4160091;28;20044;-66
2023/02/21 06:34:23;;;;;;;17.50;9.90;;;16.80;76.80;;;;;;4159353;28;20496;-60
2023/02/21 06:37:03;;;;;;;13.73;9.40;;;16.90;76.50;;;;;;4146908;28;20103;-65
2023/02/21 06:39:46;;;;;;;15.15;9.73;;;17.00;76.50;;;;;;4159196;28;20048;-64
2023/02/21 06:42:27;;;;;;;12.88;8.85;;;17.00;76.40;;;;;;4146661;28;20102;-66
2023/02/21 06:45:08;;;;;;;17.83;9.25;;;17.00;76.40;;;;;;4158652;28;20044;-64
2023/02/21 06:47:49;;;;;;;;;;;17.00;76.40;;;;;;4159513;28;20055;-67
2023/02/21 06:50:30;;;;;;;17.77;9.35;;;16.90;77.10;;;;;;4161451;28;19932;-67
2023/02/21 06:53:11;;;;;;;14.90;9.25;;;16.90;77.30;;;;;;4171866;28;20506;-67
2023/02/21 06:55:53;;;;;;;17.60;10.55;;;16.90;77.40;;;;;;4163204;28;20172;-67
2023/02/21 06:58:35;;;;;;;14.13;9.32;;;16.90;77.10;;;;;;4172030;28;20229;-67
2023/02/21 07:01:15;;;;;;;17.05;9.40;;;17.00;77.00;;;;;;4175653;28;20590;-67
2023/02/21 07:03:58;;;;;;;16.88;10.15;;;17.00;76.70;;;;;;4171191;28;20179;-67
2023/02/21 07:06:39;;;;;;;17.58;9.18;;;17.00;76.50;;;;;;4159006;28;20068;-68
2023/02/21 07:09:20;;;;;;;17.88;9.73;;;17.00;76.40;;;;;;4160330;28;20072;-63
2023/02/21 07:12:03;;;;;;;13.75;9.40;;;16.90;76.50;;;;;;4168518;28;20056;-67
2023/02/21 07:14:44;;;;;;;18.42;10.20;;;16.90;76.80;;;;;;4162739;28;20056;-66
2023/02/21 07:17:25;;;;;;;14.35;9.00;;;16.80;76.80;;;;;;4152532;28;20184;-66
2023/02/21 07:20:06;;;;;;;13.75;9.98;;;16.80;77.00;;;;;;4164148;28;20195;-66
2023/02/21 07:22:47;;;;;;;18.20;10.23;;;16.70;77.20;;;;;;4160800;28;20408;-66
2023/02/21 07:25:28;;;;;;;12.93;10.27;;;16.70;77.40;;;;;;4166394;28;20060;-66
2023/02/21 07:28:11;;;;;;;15.95;10.25;;;16.60;77.50;;;;;;4153060;28;20048;-67
2023/02/21 07:30:52;;;;;;;13.88;9.70;;;16.50;77.60;;;;;;4158433;28;20115;-66
2023/02/21 07:33:33;;;;;;;14.25;9.30;;;16.50;77.90;;;;;;4149894;28;20056;-65
2023/02/21 07:36:14;;;;;;;16.65;10.90;;;16.40;78.90;;;;;;4161523;28;20463;-66
2023/02/21 07:38:55;;;;;;;18.77;10.68;;;16.40;78.40;;;;;;4161653;28;20072;-66
2023/02/21 07:41:36;;;;;;;18.38;10.68;;;16.30;78.60;;;;;;4161981;28;20059;-66
2023/02/21 07:44:18;;;;;;;19.00;10.53;;;16.30;79.00;;;;;;4161798;28;20087;-67
2023/02/21 07:46:59;;;;;;;14.57;10.75;;;16.40;78.90;;;;;;4161823;28;20299;-67
2023/02/21 07:49:41;;;;;;;17.63;11.50;;;16.50;78.50;;;;;;4162145;28;20235;-66
2023/02/21 07:52:22;;;;;;;17.33;11.23;;;16.50;78.90;;;;;;4161919;28;20151;-67
2023/02/21 07:55:03;;;;;;;16.92;10.57;;;16.60;77.80;;;;;;4161884;28;20074;-66
2023/02/21 07:57:45;;;;;;;14.60;10.50;;;16.60;77.60;;;;;;4161893;28;20408;-66
2023/02/21 08:00:27;;;;;;;16.35;10.55;;;16.60;77.50;;;;;;4161914;28;20048;-66
2023/02/21 08:03:12;;;;;;;19.10;11.48;;;16.50;77.50;;;;;;4161756;28;20396;-67
2023/02/21 08:05:52;;;;;;;17.45;11.63;;;16.50;77.60;;;;;;4161640;28;20048;-66
2023/02/21 08:08:34;;;;;;;17.33;11.15;;;16.50;77.80;;;;;;4161527;28;20054;-65
2023/02/21 08:11:15;;;;;;;17.77;11.65;;;16.50;77.60;;;;;;4161661;28;20127;-67
2023/02/21 08:13:57;;;;;;;19.35;12.15;;;16.50;77.50;;;;;;4150759;28;20056;-65
2023/02/21 08:16:39;;;;;;;16.83;10.85;;;16.50;77.40;;;;;;4150834;28;20126;-64
2023/02/21 08:19:20;;;;;;;18.42;10.98;;;16.50;77.60;;;;;;4143522;28;20063;-65
2023/02/21 08:22:01;;;;;;;21.23;12.32;;;16.60;77.40;;;;;;4161439;28;20166;-64
2023/02/21 08:24:45;;;;;;;17.92;11.50;;;16.60;77.10;;;;;;4160881;28;20447;-66
2023/02/21 08:27:26;;;;;;;20.75;12.18;;;16.70;77.00;;;;;;4173812;28;20184;-67
2023/02/21 08:30:07;;;;;;;19.58;11.77;;;16.70;76.60;;;;;;4171078;28;20055;-67
2023/02/21 08:32:50;;;;;;;23.30;12.43;;;16.80;76.60;;;;;;4173041;28;20060;-66
2023/02/21 08:35:31;;;;;;;18.83;11.45;;;16.80;76.60;;;;;;4172628;28;20052;-66
2023/02/21 08:38:12;;;;;;;19.30;11.57;;;16.80;76.30;;;;;;4173595;28;20446;-66
2023/02/21 08:40:53;;;;;;;17.25;12.18;;;16.90;75.90;;;;;;4174666;28;20055;-67
2023/02/21 08:43:37;;;;;;;23.50;12.18;;;16.90;75.60;;;;;;4174058;28;20048;-66
2023/02/21 08:46:18;;;;;;;18.10;12.25;;;16.90;75.50;;;;;;4173931;28;20067;-67
2023/02/21 08:49:01;;;;;;;23.02;13.45;;;16.90;75.40;;;;;;4173379;28;20087;-66
2023/02/21 08:51:43;;;;;;;16.17;12.13;;;16.90;75.40;;;;;;4174451;28;20052;-66
2023/02/21 08:54:24;;;;;;;20.00;12.07;;;16.80;75.50;;;;;;4174298;28;20048;-66
2023/02/21 08:57:05;;;;;;;;;;;16.80;75.80;;;;;;4174489;28;20632;-67
2023/02/21 08:59:46;;;;;;;22.42;11.75;;;16.70;76.10;;;;;;4173547;28;20406;-66
2023/02/21 09:02:29;;;;;;;19.27;12.90;;;16.70;76.20;;;;;;4174055;28;20115;-66
2023/02/21 09:05:13;;;;;;;18.80;12.23;;;16.60;76.30;;;;;;4131620;28;20147;-66
2023/02/21 09:07:57;;;;;;;22.60;12.43;;;16.60;76.60;;;;;;4173952;28;20134;-63
2023/02/21 09:10:43;;;;;;;20.27;12.75;;;16.50;77.00;;;;;;4174275;28;20187;-64
2023/02/21 09:13:24;;;;;;;25.25;13.57;;;16.40;77.20;;;;;;4173383;28;20179;-64
2023/02/21 09:16:06;;;;;;;18.90;13.25;;;16.40;78.20;;;;;;4174391;28;20082;-67
2023/02/21 09:18:54;;;;;;;22.15;13.23;;;16.30;77.50;;;;;;4169655;28;20191;-67
2023/02/21 09:21:44;;;;;;;19.80;11.27;;;16.30;77.70;;;;;;4174474;28;20083;-67
2023/02/21 09:24:26;;;;;;;18.10;12.48;;;16.20;77.90;;;;;;4173362;28;20047;-66
2023/02/21 09:27:07;;;;;;;19.77;13.43;;;16.20;78.00;;;;;;4174057;28;20051;-67
2023/02/21 09:29:48;;;;;;;18.67;12.25;;;16.20;78.10;;;;;;4170861;28;20052;-65
2023/02/21 09:32:29;;;;;;;19.40;12.00;;;16.10;78.30;;;;;;4161313;28;20191;-65
2023/02/21 09:35:13;;;;;;;21.17;12.88;;;16.10;78.50;;;;;;4172778;28;20099;-67
2023/02/21 09:37:57;;;;;;;19.92;13.43;;;16.10;78.60;;;;;;4173066;28;20167;-67
2023/02/21 09:40:42;;;;;;;21.15;13.15;;;16.00;78.70;;;;;;4173647;28;20051;-64
2023/02/21 09:43:32;;;;;;;18.60;13.27;;;16.00;78.70;;;;;;4172310;28;20179;-64
2023/02/21 09:46:18;;;;;;;19.80;12.43;;;16.00;78.80;;;;;;4173441;28;20056;-62
2023/02/21 09:49:02;;;;;;;18.85;13.13;;;16.00;79.00;;;;;;4166370;28;20407;-65
2023/02/21 09:51:44;;;;;;;18.00;12.63;;;15.90;79.00;;;;;;4173086;28;20056;-63
2023/02/21 09:54:32;;;;;;;19.85;12.48;;;15.90;78.90;;;;;;4172855;28;20059;-65
2023/02/21 09:57:16;;;;;;;19.17;12.20;;;15.90;79.10;;;;;;4173516;28;20052;-64
2023/02/21 09:59:57;;;;;;;23.88;12.82;;;15.90;79.20;;;;;;4173067;28;20183;-65
2023/02/21 10:02:50;;;;;;;21.02;13.55;;;15.80;79.30;;;;;;4164842;28;20047;-63
2023/02/21 10:05:42;;;;;;;22.25;13.25;;;15.80;79.30;;;;;;4170942;28;20364;-65
2023/02/21 10:08:35;;;;;;;17.50;12.07;;;15.80;79.40;;;;;;4159950;28;20505;-65
2023/02/21 10:11:29;;;;;;;18.58;11.63;;;15.80;79.50;;;;;;4159632;28;20526;-65
2023/02/21 10:14:22;;;;;;;22.20;12.85;;;15.80;79.60;;;;;;4172062;28;20674;-65
2023/02/21 10:17:12;;;;;;;17.50;13.57;;;15.80;79.60;;;;;;4172232;28;20115;-65
2023/02/21 10:19:59;;;;;;;20.27;13.07;;;15.80;79.80;;;;;;4172410;28;20400;-65
2023/02/21 10:22:45;;;;;;;18.02;12.05;;;15.70;79.80;;;;;;4172956;28;20607;-65
2023/02/21 10:25:29;;;;;;;21.20;12.45;;;15.70;79.80;;;;;;4160656;28;20051;-64
2023/02/21 10:28:18;;;;;;;18.42;14.05;;;15.70;79.90;;;;;;4173189;28;20183;-64
2023/02/21 10:31:05;;;;;;;17.23;12.60;;;15.70;79.90;;;;;;4172681;28;20060;-65
2023/02/21 10:33:46;;;;;;;19.42;12.43;;;15.70;79.90;;;;;;4172972;28;20052;-65
2023/02/21 10:36:28;;;;;;;20.52;12.32;;;15.70;80.00;;;;;;4172754;28;20051;-64
2023/02/21 10:39:14;;;;;;;20.10;12.63;;;15.60;80.00;;;;;;4171666;28;20056;-65
2023/02/21 10:41:56;;;;;;;21.95;14.18;;;15.60;80.00;;;;;;4160652;28;20068;-65
2023/02/21 10:44:39;;;;;;;;;;;15.60;80.10;;;;;;4172347;28;20087;-65
2023/02/21 10:47:24;;;;;;;17.30;12.48;;;15.60;80.10;;;;;;4172396;28;20224;-65
2023/02/21 10:50:08;;;;;;;21.48;13.23;;;15.60;80.40;;;;;;4171586;28;20056;-64
2023/02/21 10:52:50;;;;;;;16.90;12.85;;;15.60;80.40;;;;;;4171728;28;20129;-65
2023/02/21 10:55:31;;;;;;;20.17;12.82;;;15.60;80.40;;;;;;4171818;28;20541;-63
2023/02/21 10:58:27;;;;;;;20.60;13.63;;;15.60;80.40;;;;;;4172959;28;20519;-64
2023/02/21 11:01:16;;;;;;;20.05;12.57;;;15.60;80.60;;;;;;4172121;28;20056;-64
2023/02/21 11:04:00;;;;;;;18.48;12.27;;;15.60;80.60;;;;;;4172559;28;20055;-64
2023/02/21 11:06:46;;;;;;;19.08;13.13;;;15.60;80.60;;;;;;4171664;28;20083;-64
2023/02/21 11:09:35;;;;;;;22.10;13.40;;;15.60;80.60;;;;;;4171889;28;20155;-63
2023/02/21 11:12:20;;;;;;;19.48;12.63;;;15.50;80.50;;;;;;4172785;28;20143;-64
2023/02/21 11:15:17;;;;;;;17.08;12.48;;;15.50;80.70;;;;;;4172295;28;20384;-65
2023/02/21 11:18:14;;;;;;;19.90;13.07;;;15.50;80.50;;;;;;4160296;28;20530;-64
2023/02/21 11:20:55;;;;;;;19.45;13.15;;;15.50;80.70;;;;;;4159718;28;20068;-64
2023/02/21 11:23:35;;;;;;;21.85;12.95;;;15.50;80.70;;;;;;4172409;28;20162;-64
2023/02/21 11:26:17;;;;;;;19.55;12.52;;;15.50;80.70;;;;;;4159395;28;20475;-65
2023/02/21 11:29:08;;;;;;;17.67;13.07;;;15.50;80.70;;;;;;4171469;28;20573;-65
2023/02/21 11:31:49;;;;;;;;;;;15.50;81.20;;;;;;4172192;28;20156;-63
2023/02/21 11:34:32;;;;;;;21.50;12.88;;;15.50;80.90;;;;;;4172527;28;20017;-65
2023/02/21 11:37:14;;;;;;;17.95;12.48;;;15.50;80.90;;;;;;4171341;28;20059;-65
2023/02/21 11:39:56;;;;;;;17.35;12.30;;;15.50;80.90;;;;;;4157620;28;20056;-64
2023/02/21 11:42:37;;;;;;;18.77;14.23;;;15.50;80.90;;;;;;4171868;28;20408;-64
2023/02/21 11:45:24;;;;;;;17.50;13.00;;;15.50;81.00;;;;;;4171958;28;20221;-64
2023/02/21 11:48:11;;;;;;;21.27;14.02;;;15.50;81.00;;;;;;4172400;28;20195;-65
2023/02/21 11:50:54;;;;;;;18.52;11.60;;;15.50;81.00;;;;;;4171996;28;20094;-64
2023/02/21 11:53:41;;;;;;;26.20;12.55;;;15.50;81.00;;;;;;4172510;28;20094;-65
2023/02/21 11:56:34;;;;;;;18.95;12.05;;;15.50;81.00;;;;;;4172270;28;20743;-64
2023/02/21 11:59:34;;;;;;;21.30;12.65;;;15.50;81.00;;;;;;4171138;28;20569;-65
2023/02/21 12:02:48;;;;;;;16.13;11.82;;;15.40;80.90;;;;;;4172527;28;20052;-64
2023/02/21 12:05:47;;;;;;;18.52;13.20;;;15.50;81.00;;;;;;4171624;28;20056;-63
2023/02/21 12:08:56;;;;;;;18.38;12.27;;;15.50;81.00;;;;;;4170144;28;20055;-64
2023/02/21 12:11:55;;;;;;;17.13;12.30;;;15.40;80.90;;;;;;4168089;28;20357;-64
2023/02/21 12:14:48;;;;;;;20.00;12.23;;;15.40;81.00;;;;;;4167151;28;20598;-65
2023/02/21 12:17:57;;;;;;;18.80;11.32;;;15.40;81.40;;;;;;4168488;28;20048;-66
2023/02/21 12:21:05;;;;;;;16.48;11.10;;;15.40;81.20;;;;;;4151075;28;20182;-65
2023/02/21 12:23:55;;;;;;;16.83;12.52;;;15.40;81.10;;;;;;4175288;28;20134;-64
2023/02/21 12:26:50;;;;;;;19.25;11.90;;;15.40;81.10;;;;;;4175246;28;20101;-63
2023/02/21 12:29:43;;;;;;;17.95;11.38;;;15.40;81.10;;;;;;4174573;28;20121;-64
2023/02/21 12:32:48;;;;;;;17.88;11.90;;;15.40;81.20;;;;;;4175396;28;20136;-64
2023/02/21 12:35:44;;;;;;;17.90;11.85;;;15.50;81.20;;;;;;4174618;28;20059;-64
2023/02/21 12:38:31;;;;;;;26.02;13.02;;;15.40;81.20;;;;;;4174721;28;20068;-64
2023/02/21 12:41:30;;;;;;;19.85;11.52;;;15.40;81.30;;;;;;4174467;28;20051;-65
2023/02/21 12:44:16;;;;;;;18.08;11.32;;;15.40;81.20;;;;;;4174099;28;20060;-63
2023/02/21 12:47:02;;;;;;;14.10;11.18;;;15.40;81.30;;;;;;4174339;28;20064;-65
2023/02/21 12:49:49;;;;;;;15.52;11.15;;;15.40;81.40;;;;;;4175088;28;20056;-63
2023/02/21 12:52:35;;;;;;;18.63;11.60;;;15.40;82.30;;;;;;4174414;28;20626;-64
2023/02/21 12:55:22;;;;;;;17.52;11.68;;;15.50;81.40;;;;;;4174100;28;20650;-63
2023/02/21 12:58:11;;;;;;;16.95;10.98;;;15.50;81.30;;;;;;4174777;28;20102;-63
2023/02/21 13:00:57;;;;;;;15.93;11.48;;;15.60;81.20;;;;;;4174233;28;20040;-63
2023/02/21 13:03:48;;;;;;;14.77;10.75;;;15.70;81.00;;;;;;4173603;28;20190;-62
2023/02/21 13:06:33;;;;;;;17.75;11.88;;;15.70;80.90;;;;;;4173156;28;22656;-64
2023/02/21 13:09:25;;;;;;;17.58;11.25;;;15.80;80.70;;;;;;4174268;28;20048;-64
2023/02/21 13:12:11;;;;;;;17.10;10.57;;;15.80;80.70;;;;;;4160432;28;20064;-64
2023/02/21 13:14:57;;;;;;;19.65;10.85;;;15.80;80.60;;;;;;4174159;28;20063;-64
2023/02/21 13:17:40;;;;;;;19.92;11.48;;;15.80;80.60;;;;;;4174031;28;20539;-65
2023/02/21 13:20:25;;;;;;;14.80;9.77;;;15.80;80.60;;;;;;4174335;28;20118;-64
2023/02/21 13:26:58;;;;;;;16.98;10.70;;;15.80;80.70;;;;;;4172379;28;20403;-61
2023/02/21 13:29:43;;;;;;;14.90;10.75;;;15.80;80.70;;;;;;4173076;28;20471;-60
2023/02/21 13:32:24;;;;;;;16.80;10.38;;;15.80;80.70;;;;;;4173159;28;20056;-60
2023/02/21 13:35:09;;;;;;;;;;;15.90;80.60;;;;;;4174137;28;20052;-60
2023/02/21 13:37:52;;;;;;;14.57;10.80;;;15.90;80.50;;;;;;4174245;28;20010;-61
2023/02/21 13:40:36;;;;;;;16.10;10.25;;;15.90;80.30;;;;;;4174236;28;20136;-60
2023/02/21 13:43:23;;;;;;;16.45;10.52;;;15.90;80.10;;;;;;4174285;28;20113;-61
2023/02/21 13:46:25;;;;;;;12.57;10.73;;;15.90;80.00;;;;;;4173359;28;20396;-61
2023/02/21 13:49:37;;;;;;;15.68;10.88;;;15.90;80.00;;;;;;4173734;28;20060;-61
2023/02/21 13:52:48;;;;;;;16.20;10.68;;;15.90;80.10;;;;;;4173542;28;20052;-61
2023/02/21 13:55:33;;;;;;;17.20;10.52;;;15.90;80.20;;;;;;4172739;28;20064;-61
2023/02/21 13:58:43;;;;;;;16.08;11.25;;;15.90;80.40;;;;;;4173468;28;20522;-62
2023/02/21 14:01:49;;;;;;;14.18;11.60;;;15.80;80.40;;;;;;4172690;28;20051;-62
2023/02/21 14:04:57;;;;;;;16.55;11.35;;;15.80;80.50;;;;;;4172680;28;20155;-64
2023/02/21 14:08:00;;;;;;;16.67;10.88;;;15.80;80.70;;;;;;4173445;28;20503;-63
2023/02/21 14:10:45;;;;;;;14.02;11.35;;;15.80;80.70;;;;;;4173278;28;20055;-64
2023/02/21 14:13:33;;;;;;;17.77;11.32;;;15.80;80.90;;;;;;4172692;28;20498;-64
2023/02/21 14:16:19;;;;;;;17.75;11.43;;;15.80;80.90;;;;;;4172478;28;20056;-64
2023/02/21 14:19:04;;;;;;;14.82;10.65;;;15.70;81.00;;;;;;4173719;28;20518;-64
2023/02/21 14:21:47;;;;;;;14.77;10.98;;;15.70;81.10;;;;;;4173305;28;20079;-65
2023/02/21 14:24:30;;;;;;;12.18;10.15;;;15.70;81.10;;;;;;4172788;28;20074;-64
2023/02/21 14:27:33;;;;;;;13.48;11.60;;;15.70;81.20;;;;;;4173767;28;20055;-63
2023/02/21 14:30:30;;;;;;;17.95;11.80;;;15.70;81.20;;;;;;4173605;28;20545;-64
2023/02/21 14:33:25;;;;;;;17.20;12.35;;;15.60;81.30;;;;;;4172078;28;20530;-64
2023/02/21 14:36:09;;;;;;;18.05;12.82;;;15.60;81.40;;;;;;4173340;28;20396;-65
2023/02/21 14:38:53;;;;;;;17.88;13.20;;;15.60;81.50;;;;;;4174961;28;20060;-64
2023/02/21 14:41:47;;;;;;;18.95;13.65;;;15.60;81.50;;;;;;4171957;28;20183;-64
2023/02/21 14:44:39;;;;;;;19.98;14.45;;;15.60;81.60;;;;;;4172536;28;20052;-66
2023/02/21 14:47:49;;;;;;;17.33;14.15;;;15.50;81.40;;;;;;4171551;28;20408;-65
2023/02/21 14:50:43;;;;;;;17.90;13.82;;;15.50;81.40;;;;;;4153451;28;20511;-64
2023/02/21 14:53:46;;;;;;;16.50;12.93;;;15.50;81.50;;;;;;4172708;28;20102;-65
2023/02/21 14:56:49;;;;;;;17.02;14.13;;;15.50;81.60;;;;;;4172745;28;20368;-65
2023/02/21 14:59:49;;;;;;;18.58;12.90;;;15.50;81.80;;;;;;4168493;28;20052;-64
2023/02/21 15:02:36;;;;;;;22.17;14.38;;;15.50;81.90;;;;;;4172190;28;20102;-64
2023/02/21 15:05:20;;;;;;;16.65;13.93;;;15.40;82.00;;;;;;4172506;28;20186;-61
2023/02/21 15:08:06;;;;;;;17.67;14.40;;;15.40;81.90;;;;;;4172416;28;20048;-63
2023/02/21 15:10:49;;;;;;;16.55;13.45;;;15.40;82.20;;;;;;4172379;28;20101;-64
2023/02/21 15:13:31;;;;;;;18.63;13.70;;;15.40;82.40;;;;;;4172479;28;20052;-64
2023/02/21 15:16:15;;;;;;;17.08;13.07;;;15.40;82.50;;;;;;4172455;28;20179;-63
2023/02/21 15:19:00;;;;;;;17.05;13.93;;;15.40;82.60;;;;;;4160127;28;20055;-64
2023/02/21 15:21:41;;;;;;;15.00;12.73;;;15.40;82.60;;;;;;4171501;28;20198;-63
2023/02/21 15:24:22;;;;;;;16.52;12.85;;;15.40;82.60;;;;;;4158874;28;20500;-64
2023/02/21 15:27:10;;;;;;;14.95;11.50;;;15.40;82.90;;;;;;4172379;28;20142;-63
2023/02/21 15:30:05;;;;;;;15.73;12.38;;;15.40;83.00;;;;;;4172740;28;20064;-64
2023/02/21 15:32:57;;;;;;;14.10;11.63;;;15.50;82.90;;;;;;4172428;28;20055;-63
2023/02/21 15:35:42;;;;;;;15.00;11.05;;;15.50;82.70;;;;;;4159569;28;20109;-64
2023/02/21 15:38:29;;;;;;;12.68;10.98;;;15.50;82.50;;;;;;4171609;28;20491;-64
2023/02/21 15:41:17;;;;;;;15.85;11.75;;;15.60;82.40;;;;;;4171220;28;20048;-63
2023/02/21 15:44:04;;;;;;;12.65;10.90;;;15.60;82.30;;;;;;4171136;28;20094;-64
2023/02/21 15:46:49;;;;;;;12.93;11.20;;;15.60;82.20;;;;;;4169073;28;20064;-64
2023/02/21 15:49:35;;;;;;;14.02;11.13;;;15.60;82.30;;;;;;4172312;28;20071;-64
2023/02/21 15:52:28;;;;;;;14.60;10.73;;;15.60;82.20;;;;;;4172022;28;20052;-62
2023/02/21 15:55:30;;;;;;;12.65;10.68;;;15.70;82.00;;;;;;4175307;28;20106;-62
2023/02/21 15:58:16;;;;;;;14.40;11.38;;;15.70;81.70;;;;;;4174443;28;20102;-62
2023/02/21 16:01:07;;;;;;;12.73;11.35;;;15.80;81.60;;;;;;4175458;28;20052;-63
2023/02/21 16:03:48;;;;;;;13.98;10.45;;;15.80;81.50;;;;;;4162953;28;20067;-64
2023/02/21 16:06:31;;;;;;;11.68;10.48;;;15.90;81.30;;;;;;4175453;28;20519;-63
2023/02/21 16:09:24;;;;;;;12.30;10.90;;;15.90;81.10;;;;;;4174686;28;20063;-63
2023/02/21 16:12:21;;;;;;;12.68;10.70;;;16.00;80.90;;;;;;4174998;28;20292;-63
2023/02/21 16:15:05;;;;;;;12.68;11.30;;;16.00;80.80;;;;;;4153155;28;20533;-64
2023/02/21 16:17:52;;;;;;;13.55;11.40;;;16.00;80.80;;;;;;4174705;28;20434;-64
2023/02/21 16:20:35;;;;;;;13.43;11.88;;;16.10;80.60;;;;;;4172918;28;20134;-63
2023/02/21 16:23:25;;;;;;;13.50;11.18;;;16.20;80.10;;;;;;4174623;28;20113;-63
2023/02/21 16:26:25;;;;;;;14.35;11.98;;;16.30;79.60;;;;;;4175245;28;20059;-62
2023/02/21 16:29:06;;;;;;;15.52;11.45;;;16.40;79.20;;;;;;4174071;28;20052;-62